Time;durP1;ratioP1;P1;durP2;ratioP2;P2;SDS_P1;SDS_P2;PMS_P1;PMS_P2;Temp;Humidity;BMP_temperature;BMP_pressure;BME280_temperature;BME280_humidity;BME280_pressure;Samples;Min_cycle;Max_cycle;Signal;HPM_P1;HPM_P2
2023/10/14 00:01:25;;;;;;;10.95;5.32;;;19.90;99.90;;;;;;5072720;28;20059;-56
2023/10/14 00:03:51;;;;;;;15.50;5.88;;;19.90;99.90;;;;;;5072408;28;20036;-56
2023/10/14 00:06:17;;;;;;;16.20;6.38;;;19.90;99.90;;;;;;5072552;28;20292;-55
2023/10/14 00:09:00;;;;;;;16.50;6.00;;;19.90;99.90;;;;;;5072274;28;20036;-54
2023/10/14 00:11:35;;;;;;;12.20;6.03;;;19.90;99.90;;;;;;5072034;28;20032;-56
2023/10/14 00:14:09;;;;;;;13.02;6.13;;;19.90;99.90;;;;;;5072284;28;20020;-55
2023/10/14 00:16:36;;;;;;;12.07;6.65;;;19.80;99.90;;;;;;5073021;28;20377;-55
2023/10/14 00:19:04;;;;;;;12.60;5.35;;;19.80;99.90;;;;;;5072166;28;20031;-56
2023/10/14 00:21:33;;;;;;;12.15;6.38;;;19.80;99.90;;;;;;5072402;28;20037;-54
2023/10/14 00:24:02;;;;;;;12.63;5.50;;;19.70;99.90;;;;;;5072429;28;20036;-56
2023/10/14 00:26:32;;;;;;;12.98;5.88;;;19.50;99.90;;;;;;5072145;28;20543;-56
2023/10/14 00:29:11;;;;;;;13.18;5.47;;;19.30;99.90;;;;;;5072311;28;20059;-55
2023/10/14 00:31:36;;;;;;;10.00;5.57;;;19.10;99.90;;;;;;5054510;28;20055;-56
2023/10/14 00:34:03;;;;;;;10.73;5.05;;;19.00;99.90;;;;;;5054108;28;20028;-55
2023/10/14 00:36:31;;;;;;;13.15;5.05;;;18.90;99.90;;;;;;5072163;28;20437;-56
2023/10/14 00:39:12;;;;;;;8.03;4.40;;;18.80;99.90;;;;;;5072026;28;20481;-56
2023/10/14 00:41:42;;;;;;;12.48;5.22;;;18.80;99.90;;;;;;5060803;28;20036;-54
2023/10/14 00:44:10;;;;;;;14.50;5.10;;;18.80;99.90;;;;;;5061253;28;20042;-53
2023/10/14 00:46:42;;;;;;;13.65;4.43;;;18.70;99.90;;;;;;5061223;28;20032;-56
2023/10/14 00:49:11;;;;;;;6.28;4.28;;;18.70;99.90;;;;;;5061445;28;20040;-56
2023/10/14 00:51:42;;;;;;;9.45;5.07;;;18.70;99.90;;;;;;5061270;28;20082;-56
2023/10/14 00:54:12;;;;;;;9.98;4.78;;;18.70;99.90;;;;;;5060536;28;20077;-56
2023/10/14 00:56:42;;;;;;;10.88;4.50;;;18.60;99.90;;;;;;5060962;28;20074;-56
2023/10/14 00:59:09;;;;;;;9.52;4.53;;;18.40;99.90;;;;;;5078983;28;20365;-55
2023/10/14 01:04:33;;;;;;;13.23;4.57;;;18.30;99.90;;;;;;5027545;28;20040;-53
2023/10/14 01:12:37;;;;;;;;;;;17.70;99.90;;;;;;5061842;28;20514;-56
2023/10/14 01:15:12;;;;;;;2.15;1.17;;;16.80;99.90;;;;;;5060539;28;19916;-53
2023/10/14 01:17:41;;;;;;;2.03;0.90;;;15.90;99.90;;;;;;5060570;28;20108;-52
2023/10/14 01:22:38;;;;;;;2.92;0.70;;;15.10;99.90;;;;;;5078214;28;19919;-54
2023/10/14 01:25:11;;;;;;;3.75;0.93;;;14.70;99.90;;;;;;5060170;28;20033;-53
2023/10/14 01:27:37;;;;;;;2.67;0.75;;;14.60;99.90;;;;;;5060545;28;20150;-55
2023/10/14 01:30:10;;;;;;;1.77;0.70;;;14.50;99.90;;;;;;5078361;28;20056;-52
2023/10/14 01:35:32;;;;;;;1.05;0.50;;;14.20;99.90;;;;;;5078212;28;20024;-54
2023/10/14 01:37:59;;;;;;;0.90;0.43;;;14.00;99.90;;;;;;5060178;28;20032;-53
2023/10/14 01:43:08;;;;;;;0.95;0.52;;;13.90;99.90;;;;;;5060246;28;20063;-55
2023/10/14 01:45:50;;;;;;;3.33;0.40;;;13.80;99.90;;;;;;5078164;28;20033;-54
2023/10/14 01:48:21;;;;;;;1.75;0.40;;;13.70;99.90;;;;;;5077988;28;20036;-54
2023/10/14 01:50:52;;;;;;;1.45;0.20;;;13.70;99.90;;;;;;5059692;28;20106;-55
2023/10/14 01:53:23;;;;;;;0.60;0.35;;;13.70;99.90;;;;;;5074090;28;20025;-53
2023/10/14 01:55:52;;;;;;;2.03;0.40;;;13.60;99.90;;;;;;5057014;28;20029;-55
2023/10/14 01:58:22;;;;;;;4.18;0.68;;;13.70;99.90;;;;;;5056730;28;20477;-53
2023/10/14 02:00:56;;;;;;;1.85;0.32;;;13.60;99.90;;;;;;5056495;28;20400;-52
2023/10/14 02:03:23;;;;;;;1.02;0.30;;;13.60;99.90;;;;;;5074231;28;20108;-52
2023/10/14 02:05:52;;;;;;;1.25;0.50;;;13.60;99.90;;;;;;5056511;28;20042;-54
2023/10/14 02:08:21;;;;;;;0.52;0.43;;;13.60;99.90;;;;;;5056374;28;20040;-53
2023/10/14 02:10:49;;;;;;;1.48;0.38;;;13.60;99.90;;;;;;5056286;28;20043;-53
2023/10/14 02:13:15;;;;;;;0.85;0.30;;;13.60;99.90;;;;;;5074141;28;20029;-51
2023/10/14 02:15:49;;;;;;;2.33;0.38;;;13.50;99.90;;;;;;5074428;28;20120;-55
2023/10/14 02:18:21;;;;;;;1.17;0.50;;;13.50;99.90;;;;;;5056269;28;20025;-54
2023/10/14 02:20:57;;;;;;;1.27;0.47;;;13.50;99.90;;;;;;5056040;28;20166;-53
2023/10/14 02:23:27;;;;;;;1.20;0.43;;;13.50;99.90;;;;;;5074119;28;20032;-52
2023/10/14 02:25:56;;;;;;;2.00;0.40;;;13.40;99.90;;;;;;5055658;28;20040;-55
2023/10/14 02:28:29;;;;;;;1.52;0.30;;;13.50;99.90;;;;;;5074509;28;20039;-52
2023/10/14 02:30:59;;;;;;;1.10;0.50;;;13.50;99.90;;;;;;5056223;28;20032;-53
2023/10/14 02:33:25;;;;;;;0.80;0.40;;;13.50;99.90;;;;;;5055924;28;20033;-54
2023/10/14 02:35:52;;;;;;;2.55;0.60;;;13.50;99.90;;;;;;5055998;28;20085;-54
2023/10/14 02:38:18;;;;;;;1.77;0.60;;;13.50;99.90;;;;;;5073999;28;20024;-55
2023/10/14 02:40:44;;;;;;;0.82;0.60;;;13.50;99.90;;;;;;5073949;28;20374;-53
2023/10/14 02:43:16;;;;;;;5.80;0.70;;;13.50;99.90;;;;;;5073598;28;20436;-52
2023/10/14 02:45:45;;;;;;;1.92;0.80;;;13.50;99.90;;;;;;5056132;28;20111;-54
2023/10/14 02:48:11;;;;;;;3.08;0.75;;;13.50;99.90;;;;;;5073783;28;20033;-55
2023/10/14 02:50:37;;;;;;;0.68;0.50;;;13.50;99.90;;;;;;5073860;28;20047;-54
2023/10/14 02:53:06;;;;;;;1.90;0.93;;;13.50;99.90;;;;;;5055817;28;20086;-53
2023/10/14 02:56:04;;;;;;;2.10;0.98;;;13.50;99.90;;;;;;5073544;28;20036;-55
2023/10/14 02:58:31;;;;;;;5.15;1.00;;;13.50;99.90;;;;;;5073203;28;20089;-55
2023/10/14 03:00:59;;;;;;;3.67;1.45;;;13.40;99.90;;;;;;5055660;28;20025;-55
2023/10/14 03:03:24;;;;;;;2.65;0.65;;;13.10;99.90;;;;;;5054779;28;20507;-54
2023/10/14 03:05:53;;;;;;;3.33;0.75;;;13.00;99.90;;;;;;5073735;28;20036;-55
2023/10/14 03:08:22;;;;;;;2.77;0.73;;;12.90;99.90;;;;;;5055370;28;20036;-51
2023/10/14 03:10:55;;;;;;;3.13;0.82;;;12.80;99.90;;;;;;5073698;28;20426;-53
2023/10/14 03:13:22;;;;;;;1.70;0.88;;;12.80;99.90;;;;;;5055292;28;20036;-54
2023/10/14 03:15:52;;;;;;;3.80;0.93;;;12.70;99.90;;;;;;5055611;28;20095;-55
2023/10/14 03:18:19;;;;;;;1.77;0.80;;;12.60;99.90;;;;;;5073315;28;20032;-51
2023/10/14 03:21:08;;;;;;;4.03;0.90;;;12.60;99.90;;;;;;5073058;28;20032;-55
2023/10/14 03:23:35;;;;;;;2.72;0.80;;;12.60;99.90;;;;;;5038409;28;20052;-54
2023/10/14 03:26:13;;;;;;;7.93;1.88;;;12.60;99.90;;;;;;5055199;28;20040;-54
2023/10/14 03:28:39;;;;;;;5.18;1.40;;;12.60;99.90;;;;;;5073108;28;20037;-55
2023/10/14 03:31:14;;;;;;;5.15;1.77;;;12.50;99.90;;;;;;5073129;28;20043;-54
2023/10/14 03:33:42;;;;;;;2.13;1.07;;;12.40;99.90;;;;;;5072685;28;20111;-51
2023/10/14 03:36:15;;;;;;;4.63;0.80;;;12.30;99.90;;;;;;5072808;28;20299;-52
2023/10/14 03:38:42;;;;;;;4.18;0.85;;;12.20;99.90;;;;;;5072421;28;20028;-51
2023/10/14 03:43:48;;;;;;;6.57;1.43;;;12.20;99.90;;;;;;5072588;28;20025;-54
2023/10/14 03:46:29;;;;;;;6.07;1.10;;;12.20;99.90;;;;;;5072967;28;20039;-53
2023/10/14 03:48:55;;;;;;;9.13;1.00;;;12.10;99.90;;;;;;5072415;28;20035;-54
2023/10/14 03:51:24;;;;;;;5.20;1.30;;;12.10;99.90;;;;;;5072516;28;20116;-54
2023/10/14 03:53:53;;;;;;;;;;;12.10;99.90;;;;;;5072830;28;20033;-54
2023/10/14 03:56:25;;;;;;;6.05;1.08;;;12.10;99.90;;;;;;5072606;28;19944;-54
2023/10/14 03:58:55;;;;;;;3.73;1.43;;;12.10;99.90;;;;;;5072315;28;20025;-55
2023/10/14 04:01:30;;;;;;;4.23;1.13;;;12.10;99.90;;;;;;5072239;28;20020;-53
2023/10/14 04:03:56;;;;;;;5.93;1.13;;;12.20;99.90;;;;;;5072386;28;20036;-55
2023/10/14 04:06:23;;;;;;;3.83;1.03;;;12.10;99.90;;;;;;5054281;28;20020;-53
2023/10/14 04:08:49;;;;;;;3.95;0.95;;;12.10;99.90;;;;;;5071797;28;20032;-55
2023/10/14 04:11:25;;;;;;;4.30;1.40;;;12.10;99.90;;;;;;5071786;28;20040;-55
2023/10/14 04:14:04;;;;;;;4.97;1.30;;;12.10;99.90;;;;;;5071992;28;20035;-54
2023/10/14 04:16:48;;;;;;;6.63;0.93;;;12.20;99.90;;;;;;5072253;28;20032;-55
2023/10/14 04:22:25;;;;;;;5.87;1.53;;;12.30;99.90;;;;;;5072430;28;20374;-55
2023/10/14 04:24:53;;;;;;;3.37;1.00;;;12.30;99.90;;;;;;5071823;28;20044;-54
2023/10/14 04:27:33;;;;;;;4.57;1.30;;;12.30;99.90;;;;;;5071986;28;20428;-55
2023/10/14 04:30:11;;;;;;;3.95;0.98;;;12.30;99.90;;;;;;5053737;28;20117;-52
2023/10/14 04:32:47;;;;;;;3.53;0.80;;;12.30;99.90;;;;;;5071613;28;20068;-53
2023/10/14 04:35:14;;;;;;;5.72;1.08;;;12.40;99.90;;;;;;5071733;28;20081;-54
2023/10/14 04:37:52;;;;;;;3.08;0.75;;;12.40;99.90;;;;;;5071807;28;20037;-55
2023/10/14 04:45:52;;;;;;;4.80;0.90;;;12.30;99.90;;;;;;5053517;28;20470;-53
2023/10/14 04:48:26;;;;;;;6.17;1.10;;;12.30;99.90;;;;;;5071535;28;20025;-54
2023/10/14 04:50:57;;;;;;;8.15;0.95;;;12.30;99.90;;;;;;5071982;28;20397;-55
2023/10/14 04:53:26;;;;;;;1.17;0.70;;;12.20;99.90;;;;;;5071524;28;20037;-54
2023/10/14 04:55:55;;;;;;;;;;;12.20;99.90;;;;;;5072384;28;20032;-53
2023/10/14 04:58:25;;;;;;;6.28;0.90;;;12.20;99.90;;;;;;5071724;28;19908;-55
2023/10/14 05:00:52;;;;;;;4.33;1.03;;;12.20;99.90;;;;;;5071573;28;20043;-55
2023/10/14 05:03:23;;;;;;;7.05;1.13;;;12.20;99.90;;;;;;5071435;28;20032;-54
2023/10/14 05:05:55;;;;;;;6.63;0.95;;;12.10;99.90;;;;;;5072441;28;20547;-53
2023/10/14 05:08:24;;;;;;;5.93;1.63;;;12.10;99.90;;;;;;5054094;28;20036;-53
2023/10/14 05:10:50;;;;;;;;;;;12.10;99.90;;;;;;5072591;28;20401;-50
2023/10/14 05:13:33;;;;;;;7.70;1.20;;;12.00;99.90;;;;;;5072048;28;19923;-55
2023/10/14 05:18:58;;;;;;;6.60;1.10;;;12.00;99.90;;;;;;5071879;28;20025;-54
2023/10/14 05:21:42;;;;;;;8.13;1.43;;;12.00;99.90;;;;;;5072070;28;20037;-54
2023/10/14 05:24:09;;;;;;;6.83;1.00;;;11.90;99.90;;;;;;5072560;28;20503;-55
2023/10/14 05:26:46;;;;;;;8.57;1.23;;;11.90;99.90;;;;;;5073781;28;20504;-55
2023/10/14 05:29:17;;;;;;;2.78;0.88;;;11.90;99.90;;;;;;5075598;28;20028;-55
2023/10/14 05:31:50;;;;;;;5.60;1.38;;;11.80;99.90;;;;;;5075747;28;20033;-52
2023/10/14 05:34:25;;;;;;;5.28;0.85;;;11.80;99.90;;;;;;5075700;28;20347;-55
2023/10/14 05:36:57;;;;;;;7.07;1.53;;;11.80;99.90;;;;;;5075887;28;20043;-52
2023/10/14 05:39:24;;;;;;;4.43;1.13;;;11.70;99.90;;;;;;5057742;28;20058;-53
2023/10/14 05:41:58;;;;;;;11.00;1.27;;;11.70;99.90;;;;;;5075929;28;20045;-54
2023/10/14 05:44:27;;;;;;;5.45;0.80;;;11.70;99.90;;;;;;5075367;28;20043;-55
2023/10/14 05:46:54;;;;;;;8.05;1.20;;;11.70;99.90;;;;;;5075973;28;20562;-53
2023/10/14 05:49:24;;;;;;;5.03;0.90;;;11.70;99.90;;;;;;5075638;28;20255;-55
2023/10/14 05:51:53;;;;;;;4.63;1.33;;;11.70;99.90;;;;;;5075424;28;20044;-54
2023/10/14 05:54:22;;;;;;;9.85;2.30;;;11.70;99.90;;;;;;5075417;28;20027;-50
2023/10/14 05:56:51;;;;;;;12.27;1.90;;;11.70;99.90;;;;;;5075708;28;20016;-54
2023/10/14 05:59:17;;;;;;;4.90;0.93;;;11.70;99.90;;;;;;5075145;28;20425;-54
2023/10/14 06:01:46;;;;;;;3.57;1.50;;;11.70;99.90;;;;;;5075348;28;20025;-52
2023/10/14 06:04:13;;;;;;;6.28;1.10;;;11.70;99.90;;;;;;5075027;28;20036;-54
2023/10/14 06:06:40;;;;;;;7.37;1.43;;;11.80;99.90;;;;;;5075284;28;20403;-55
2023/10/14 06:09:08;;;;;;;2.50;0.90;;;11.80;99.90;;;;;;5075022;28;20029;-54
2023/10/14 06:11:33;;;;;;;4.03;1.17;;;11.70;99.90;;;;;;5075019;28;20051;-55
2023/10/14 06:14:02;;;;;;;5.33;1.23;;;11.60;99.90;;;;;;5074604;28;20517;-55
2023/10/14 06:16:29;;;;;;;6.35;1.15;;;11.60;99.90;;;;;;5075032;28;20181;-54
2023/10/14 06:18:56;;;;;;;3.40;1.20;;;11.60;99.90;;;;;;5074445;28;20055;-55
2023/10/14 06:21:27;;;;;;;6.77;1.57;;;11.60;99.90;;;;;;5074872;28;20052;-55
2023/10/14 06:23:53;;;;;;;5.27;0.80;;;11.60;99.90;;;;;;5074593;28;20483;-55
2023/10/14 06:26:19;;;;;;;9.07;1.10;;;11.60;99.90;;;;;;5074681;28;20032;-54
2023/10/14 06:28:45;;;;;;;6.33;1.40;;;11.60;99.90;;;;;;5075034;28;20027;-54
2023/10/14 06:31:12;;;;;;;6.67;1.27;;;11.60;99.90;;;;;;5074785;28;20028;-54
2023/10/14 06:33:40;;;;;;;3.57;0.87;;;11.60;99.90;;;;;;5075009;28;20028;-55
2023/10/14 06:36:10;;;;;;;9.70;1.13;;;11.60;99.90;;;;;;5074512;28;20111;-53
2023/10/14 06:38:40;;;;;;;5.20;1.10;;;11.60;99.90;;;;;;5055601;28;20033;-54
2023/10/14 06:41:10;;;;;;;7.63;1.20;;;11.70;99.90;;;;;;5074937;28;20465;-55
2023/10/14 06:43:36;;;;;;;6.87;1.10;;;11.70;99.90;;;;;;5074414;28;20396;-55
2023/10/14 06:46:04;;;;;;;7.53;1.10;;;11.70;99.90;;;;;;5074611;28;20116;-55
2023/10/14 06:48:30;;;;;;;13.57;1.30;;;11.70;99.90;;;;;;5074863;28;20040;-55
2023/10/14 06:50:58;;;;;;;5.00;0.70;;;11.80;99.90;;;;;;5056585;28;20082;-54
2023/10/14 06:53:28;;;;;;;5.93;1.40;;;11.80;99.90;;;;;;5073940;28;20097;-55
2023/10/14 06:55:54;;;;;;;5.37;1.30;;;11.70;99.90;;;;;;5074393;28;20032;-54
2023/10/14 06:58:21;;;;;;;4.43;0.77;;;11.70;99.90;;;;;;5074360;28;20125;-55
2023/10/14 07:00:48;;;;;;;7.23;1.07;;;11.80;99.90;;;;;;5074216;28;20036;-55
2023/10/14 07:03:14;;;;;;;10.20;1.50;;;11.70;99.90;;;;;;5074330;28;20485;-53
2023/10/14 07:08:23;;;;;;;7.30;1.00;;;11.80;99.90;;;;;;5074390;28;20469;-53
2023/10/14 07:10:52;;;;;;;3.73;0.93;;;11.90;99.90;;;;;;5074235;28;20485;-53
2023/10/14 07:13:22;;;;;;;8.83;1.30;;;11.80;99.90;;;;;;5074011;28;20051;-52
2023/10/14 07:15:48;;;;;;;5.50;1.37;;;11.80;99.90;;;;;;5073858;28;20027;-52
2023/10/14 07:18:18;;;;;;;9.10;1.40;;;11.90;99.90;;;;;;5074513;28;20055;-49
2023/10/14 07:20:45;;;;;;;5.97;1.10;;;12.00;99.90;;;;;;5073975;28;20036;-53
2023/10/14 07:23:11;;;;;;;7.90;1.40;;;12.00;99.90;;;;;;5073997;28;20040;-53
2023/10/14 07:25:41;;;;;;;5.43;1.03;;;12.00;99.90;;;;;;5073657;28;20520;-53
2023/10/14 07:28:13;;;;;;;5.43;1.17;;;12.00;99.90;;;;;;5074007;28;20025;-55
2023/10/14 07:30:45;;;;;;;4.53;1.10;;;12.10;99.90;;;;;;5055806;28;20032;-53
2023/10/14 07:33:12;;;;;;;5.30;1.03;;;12.10;99.90;;;;;;5073612;28;20028;-53
2023/10/14 07:35:41;;;;;;;8.33;1.30;;;12.10;99.90;;;;;;5074082;28;20016;-55
2023/10/14 07:38:11;;;;;;;7.10;1.20;;;12.20;99.90;;;;;;5074109;28;20412;-55
2023/10/14 07:40:38;;;;;;;7.07;1.47;;;12.20;99.90;;;;;;5073873;28;20381;-51
2023/10/14 07:43:07;;;;;;;4.37;1.20;;;12.20;99.90;;;;;;5073964;28;20037;-53
2023/10/14 07:45:35;;;;;;;5.65;0.95;;;12.20;99.90;;;;;;5073575;28;20056;-52
2023/10/14 07:48:08;;;;;;;10.73;1.33;;;12.40;99.90;;;;;;5055678;28;20036;-52
2023/10/14 07:50:38;;;;;;;4.90;1.13;;;12.50;99.90;;;;;;5073249;28;20036;-52
2023/10/14 07:53:12;;;;;;;7.97;1.57;;;12.50;99.90;;;;;;5055356;28;20102;-51
2023/10/14 07:55:40;;;;;;;6.70;1.63;;;12.60;99.90;;;;;;5073845;28;20031;-55
2023/10/14 07:58:10;;;;;;;4.22;1.30;;;12.70;99.90;;;;;;5073579;28;20078;-55
2023/10/14 08:00:49;;;;;;;3.50;0.85;;;12.80;99.90;;;;;;5073178;28;20073;-54
2023/10/14 08:03:20;;;;;;;8.63;2.88;;;12.90;99.90;;;;;;5073220;28;20055;-51
2023/10/14 08:05:53;;;;;;;14.55;4.75;;;12.90;99.90;;;;;;5073912;28;20046;-53
2023/10/14 08:08:21;;;;;;;9.43;2.78;;;12.80;99.90;;;;;;5073383;28;20036;-54
2023/10/14 08:10:49;;;;;;;6.63;1.48;;;12.80;99.90;;;;;;5072753;28;20033;-53
2023/10/14 08:13:21;;;;;;;6.40;2.20;;;12.90;99.90;;;;;;5072804;28;20491;-54
2023/10/14 08:15:50;;;;;;;3.10;1.40;;;12.90;99.90;;;;;;5072972;28;20028;-50
2023/10/14 08:18:17;;;;;;;4.53;1.38;;;12.90;99.90;;;;;;5072775;28;20043;-54
2023/10/14 08:20:43;;;;;;;4.65;1.20;;;13.00;99.90;;;;;;5073108;28;20068;-52
2023/10/14 08:23:10;;;;;;;2.63;0.80;;;13.10;99.90;;;;;;5072343;28;20036;-53
2023/10/14 08:25:41;;;;;;;3.47;1.00;;;13.10;99.90;;;;;;5054520;28;20052;-49
2023/10/14 08:28:08;;;;;;;5.95;1.13;;;13.20;99.90;;;;;;5072125;28;20024;-54
2023/10/14 08:30:45;;;;;;;9.07;1.13;;;13.10;99.90;;;;;;5072786;28;20036;-52
2023/10/14 08:33:14;;;;;;;5.35;1.05;;;13.20;99.90;;;;;;5072271;28;20158;-55
2023/10/14 08:35:44;;;;;;;4.63;0.90;;;13.20;99.90;;;;;;5072780;28;20024;-54
2023/10/14 08:38:17;;;;;;;4.18;1.10;;;13.20;99.90;;;;;;5072488;28;20032;-54
2023/10/14 08:40:43;;;;;;;7.97;0.85;;;13.20;99.90;;;;;;5072944;28;20036;-54
2023/10/14 08:43:14;;;;;;;7.40;1.30;;;13.50;99.90;;;;;;5073053;28;20029;-51
2023/10/14 08:45:41;;;;;;;7.00;3.20;;;13.50;99.90;;;;;;5072725;28;20546;-54
2023/10/14 08:48:15;;;;;;;4.60;1.17;;;13.60;99.90;;;;;;5073204;28;20040;-54
2023/10/14 08:50:41;;;;;;;7.10;1.27;;;13.60;99.90;;;;;;5072679;28;20128;-51
2023/10/14 08:53:09;;;;;;;6.47;1.35;;;13.70;99.90;;;;;;5072886;28;20067;-52
2023/10/14 08:55:36;;;;;;;10.32;1.17;;;13.70;99.90;;;;;;5073143;28;20090;-54
2023/10/14 08:58:05;;;;;;;3.20;0.80;;;13.60;99.90;;;;;;5073407;28;20033;-54
2023/10/14 09:00:37;;;;;;;;;;;13.60;99.90;;;;;;5073081;28;20032;-55
2023/10/14 09:03:06;;;;;;;5.18;1.10;;;13.60;99.90;;;;;;5076334;28;19912;-54
2023/10/14 09:05:40;;;;;;;7.50;1.05;;;13.90;99.90;;;;;;5076717;28;20036;-55
2023/10/14 09:08:06;;;;;;;6.25;1.17;;;14.10;99.90;;;;;;5076671;28;20424;-55
2023/10/14 09:10:33;;;;;;;7.72;1.42;;;14.30;99.90;;;;;;5058639;28;20489;-54
2023/10/14 09:13:04;;;;;;;6.55;0.82;;;14.40;99.90;;;;;;5076429;28;20415;-54
2023/10/14 09:15:57;;;;;;;13.25;1.70;;;14.70;99.90;;;;;;5076888;28;20454;-54
2023/10/14 09:18:27;;;;;;;8.88;1.55;;;14.80;99.90;;;;;;5072417;28;20078;-55
2023/10/14 09:20:57;;;;;;;11.20;1.75;;;14.90;99.90;;;;;;5076049;28;20043;-53
2023/10/14 09:23:27;;;;;;;6.70;1.75;;;14.80;99.90;;;;;;5075854;28;20445;-53
2023/10/14 09:25:55;;;;;;;5.32;1.17;;;14.70;99.90;;;;;;5075789;28;20047;-55
2023/10/14 09:28:23;;;;;;;5.38;1.00;;;14.70;99.90;;;;;;5076066;28;20381;-55
2023/10/14 09:30:50;;;;;;;5.88;1.30;;;15.10;99.90;;;;;;5075864;28;20036;-53
2023/10/14 09:33:28;;;;;;;4.55;0.93;;;15.50;99.90;;;;;;5075829;28;20036;-56
2023/10/14 09:35:59;;;;;;;5.32;1.38;;;15.90;99.90;;;;;;5057545;28;20140;-53
2023/10/14 09:38:26;;;;;;;4.55;1.27;;;16.80;99.90;;;;;;5056993;28;20481;-53
2023/10/14 09:41:02;;;;;;;5.95;0.98;;;17.60;99.90;;;;;;5075015;28;20486;-52
2023/10/14 09:43:29;;;;;;;5.55;1.25;;;19.10;99.90;;;;;;5075248;28;20071;-56
2023/10/14 09:45:59;;;;;;;4.50;1.15;;;19.80;99.70;;;;;;5075387;28;20039;-52
2023/10/14 09:48:34;;;;;;;5.63;1.00;;;19.80;98.60;;;;;;5074540;28;20444;-51
2023/10/14 09:51:01;;;;;;;5.50;1.42;;;19.40;99.90;;;;;;5074945;28;20388;-54
2023/10/14 09:53:34;;;;;;;5.82;1.13;;;19.00;99.60;;;;;;5056924;28;20365;-52
2023/10/14 09:56:08;;;;;;;10.07;3.33;;;18.60;99.90;;;;;;5075207;28;20060;-51
2023/10/14 09:58:43;;;;;;;8.32;1.73;;;18.10;99.90;;;;;;5074582;28;20024;-51
2023/10/14 10:01:14;;;;;;;6.63;1.52;;;18.30;99.90;;;;;;5075241;28;20477;-51
2023/10/14 10:03:50;;;;;;;3.47;1.33;;;18.50;99.90;;;;;;5074998;28;20032;-52
2023/10/14 10:06:43;;;;;;;6.18;1.05;;;18.30;99.90;;;;;;5075404;28;20388;-54
2023/10/14 10:09:49;;;;;;;4.40;1.40;;;18.30;99.90;;;;;;5075197;28;20028;-53
2023/10/14 10:12:17;;;;;;;7.90;1.45;;;17.90;99.90;;;;;;5074238;28;20060;-53
2023/10/14 10:14:44;;;;;;;7.22;1.25;;;17.10;99.90;;;;;;5074742;28;20025;-55
2023/10/14 10:17:14;;;;;;;5.60;1.27;;;16.70;99.90;;;;;;5075291;28;20033;-51
2023/10/14 10:20:16;;;;;;;4.68;1.25;;;16.30;99.90;;;;;;5074962;28;20414;-55
2023/10/14 10:22:52;;;;;;;5.75;1.05;;;16.00;99.90;;;;;;5075170;28;20154;-50
2023/10/14 10:25:21;;;;;;;3.83;0.90;;;16.00;99.90;;;;;;5075681;28;20587;-49
2023/10/14 10:27:49;;;;;;;9.90;1.30;;;16.30;99.90;;;;;;5074967;28;20032;-54
2023/10/14 10:30:17;;;;;;;4.93;1.20;;;16.50;99.90;;;;;;5074697;28;20111;-51
2023/10/14 10:32:48;;;;;;;7.93;1.02;;;16.80;99.90;;;;;;5074686;28;20155;-54
2023/10/14 10:35:19;;;;;;;5.82;1.17;;;17.10;99.90;;;;;;5074873;28;20040;-53
2023/10/14 10:37:54;;;;;;;7.18;1.13;;;17.10;99.90;;;;;;5074904;28;20092;-52
2023/10/14 10:40:22;;;;;;;7.40;1.48;;;16.60;99.90;;;;;;5074795;28;20036;-50
2023/10/14 10:43:06;;;;;;;8.73;1.10;;;16.40;99.90;;;;;;5056951;28;20033;-52
2023/10/14 10:45:36;;;;;;;3.75;1.10;;;16.40;99.90;;;;;;5075498;28;20051;-50
2023/10/14 10:48:05;;;;;;;4.88;1.00;;;16.50;99.90;;;;;;5074633;28;20028;-54
2023/10/14 10:50:34;;;;;;;7.55;1.65;;;16.30;99.90;;;;;;5074370;28;20037;-52
2023/10/14 10:53:09;;;;;;;7.03;1.23;;;16.10;99.90;;;;;;5074125;28;20066;-52
2023/10/14 10:55:38;;;;;;;8.38;1.30;;;15.70;99.90;;;;;;5074782;28;20111;-49
2023/10/14 10:58:05;;;;;;;13.45;1.73;;;15.50;99.90;;;;;;5074714;28;20024;-49
2023/10/14 11:00:31;;;;;;;5.97;0.90;;;15.40;99.90;;;;;;5074768;28;20033;-51
2023/10/14 11:03:01;;;;;;;5.40;1.30;;;15.60;99.90;;;;;;5073682;28;20035;-53
2023/10/14 11:05:29;;;;;;;7.43;1.77;;;15.70;99.90;;;;;;5073139;28;20032;-54
2023/10/14 11:07:56;;;;;;;7.22;1.48;;;15.90;99.90;;;;;;5073638;28;20492;-52
2023/10/14 11:10:23;;;;;;;8.80;1.40;;;16.10;99.90;;;;;;5072772;28;20032;-52
2023/10/14 11:12:49;;;;;;;4.32;1.50;;;16.20;99.90;;;;;;5072913;28;20063;-50
2023/10/14 11:15:23;;;;;;;5.07;1.30;;;16.30;99.90;;;;;;5073158;28;20028;-53
2023/10/14 11:17:58;;;;;;;5.53;1.00;;;16.00;99.90;;;;;;5072779;28;20040;-54
2023/10/14 11:20:34;;;;;;;7.57;2.22;;;15.80;99.90;;;;;;5073561;28;20051;-55
2023/10/14 11:23:01;;;;;;;4.82;1.50;;;15.80;99.90;;;;;;5072829;28;20033;-55
2023/10/14 11:25:30;;;;;;;6.20;1.40;;;15.90;99.90;;;;;;5054994;28;20501;-55
2023/10/14 11:27:57;;;;;;;7.38;1.23;;;16.00;99.90;;;;;;5073445;28;20040;-52
2023/10/14 11:30:28;;;;;;;5.15;1.58;;;16.10;99.90;;;;;;5073026;28;20445;-55
2023/10/14 11:33:02;;;;;;;6.72;1.00;;;16.10;99.90;;;;;;5054767;28;20493;-55
2023/10/14 11:35:30;;;;;;;4.57;1.30;;;16.10;99.90;;;;;;5072966;28;20504;-55
2023/10/14 11:38:00;;;;;;;5.55;1.00;;;15.80;99.90;;;;;;5072720;28;20171;-55
2023/10/14 11:40:36;;;;;;;6.82;1.00;;;15.70;99.90;;;;;;5072768;28;20025;-56
2023/10/14 11:43:03;;;;;;;4.32;0.85;;;16.20;99.90;;;;;;5072575;28;20029;-54
2023/10/14 11:45:30;;;;;;;3.05;0.90;;;17.10;99.90;;;;;;5072948;28;20480;-55
2023/10/14 11:47:56;;;;;;;5.43;0.95;;;17.90;99.90;;;;;;5038062;28;20043;-53
2023/10/14 11:50:22;;;;;;;5.45;1.10;;;18.90;98.70;;;;;;5072026;28;20032;-54
2023/10/14 11:52:53;;;;;;;5.65;1.20;;;19.10;97.30;;;;;;5071863;28;20028;-54
2023/10/14 11:55:19;;;;;;;8.88;1.40;;;19.10;96.50;;;;;;5054078;28;20549;-53
2023/10/14 11:57:48;;;;;;;4.95;1.42;;;19.00;96.90;;;;;;5072485;28;20020;-57
2023/10/14 12:00:17;;;;;;;7.57;1.10;;;18.90;96.70;;;;;;5072206;28;20099;-54
2023/10/14 12:02:44;;;;;;;6.63;0.90;;;18.70;95.40;;;;;;5071752;28;20025;-54
2023/10/14 12:05:10;;;;;;;5.13;1.20;;;17.90;96.10;;;;;;5072306;28;20109;-53
2023/10/14 12:07:36;;;;;;;6.82;0.95;;;17.60;96.90;;;;;;5072074;28;20040;-54
2023/10/14 12:10:06;;;;;;;6.75;1.10;;;17.50;96.80;;;;;;5071846;28;20431;-50
2023/10/14 12:12:32;;;;;;;7.97;1.27;;;17.20;96.80;;;;;;5072281;28;20051;-53
2023/10/14 12:14:59;;;;;;;5.00;1.20;;;17.00;96.80;;;;;;5071884;28;20044;-53
2023/10/14 12:17:24;;;;;;;4.85;1.30;;;16.70;97.40;;;;;;5072613;28;20033;-54
2023/10/14 12:19:50;;;;;;;4.53;1.38;;;16.60;97.90;;;;;;5072091;28;20028;-55
2023/10/14 12:22:16;;;;;;;5.22;1.20;;;16.50;98.70;;;;;;5072397;28;20413;-53
2023/10/14 12:24:41;;;;;;;5.47;0.90;;;16.50;99.20;;;;;;5072267;28;20025;-55
2023/10/14 12:27:14;;;;;;;3.20;1.00;;;16.60;97.20;;;;;;5071961;28;20400;-52
2023/10/14 12:29:40;;;;;;;4.57;1.30;;;16.90;98.70;;;;;;5071724;28;20058;-55
2023/10/14 12:32:12;;;;;;;5.50;1.65;;;17.00;98.20;;;;;;5072046;28;20481;-54
2023/10/14 12:34:39;;;;;;;7.03;2.00;;;17.20;98.20;;;;;;5071897;28;20074;-51
2023/10/14 12:37:14;;;;;;;5.80;1.77;;;17.20;97.60;;;;;;5053124;28;20032;-54
2023/10/14 12:39:49;;;;;;;7.35;1.15;;;17.20;97.20;;;;;;5071542;28;20115;-55
2023/10/14 12:42:16;;;;;;;5.72;0.95;;;17.40;96.60;;;;;;5071880;28;20043;-55
2023/10/14 12:44:42;;;;;;;7.93;1.73;;;17.50;98.50;;;;;;5071676;28;20036;-53
2023/10/14 12:47:11;;;;;;;3.40;1.10;;;17.50;98.00;;;;;;5071786;28;20025;-55
2023/10/14 12:49:40;;;;;;;3.83;1.10;;;17.40;94.60;;;;;;5071699;28;20446;-55
2023/10/14 12:52:12;;;;;;;;;;;17.30;94.70;;;;;;5072347;28;20047;-55
2023/10/14 12:54:49;;;;;;;4.53;0.80;;;17.20;94.80;;;;;;5071739;28;19909;-52
2023/10/14 12:57:16;;;;;;;4.43;0.90;;;16.90;95.50;;;;;;5071723;28;20086;-54
2023/10/14 12:59:42;;;;;;;3.92;1.08;;;17.00;95.80;;;;;;5071504;28;20491;-53
2023/10/14 13:02:09;;;;;;;3.60;0.90;;;17.30;95.00;;;;;;5072044;28;20033;-55
2023/10/14 13:04:44;;;;;;;4.68;1.02;;;17.50;94.90;;;;;;5071322;28;20030;-56
2023/10/14 13:07:11;;;;;;;6.13;1.63;;;17.60;94.80;;;;;;5071609;28;20497;-54
2023/10/14 13:09:38;;;;;;;4.00;0.90;;;18.10;95.10;;;;;;5071199;28;20039;-56
2023/10/14 13:12:18;;;;;;;4.72;1.35;;;18.90;93.90;;;;;;5071440;28;20078;-56
2023/10/14 13:14:45;;;;;;;4.43;0.77;;;19.50;92.20;;;;;;5071632;28;20481;-55
2023/10/14 13:17:11;;;;;;;4.75;1.00;;;19.60;91.60;;;;;;5071381;28;20029;-53
2023/10/14 13:19:37;;;;;;;6.07;1.20;;;19.80;90.90;;;;;;5071462;28;20025;-53
2023/10/14 13:22:11;;;;;;;8.05;1.17;;;19.40;90.40;;;;;;5072142;28;20031;-55
2023/10/14 13:24:40;;;;;;;5.90;1.33;;;19.90;89.20;;;;;;5071454;28;20062;-50
2023/10/14 13:27:06;;;;;;;2.78;0.98;;;19.90;88.00;;;;;;5071424;28;20075;-50
2023/10/14 13:29:35;;;;;;;5.75;0.85;;;19.20;90.90;;;;;;5071407;28;20043;-52
2023/10/14 13:32:01;;;;;;;4.60;0.70;;;18.70;91.20;;;;;;5071739;28;20080;-50
2023/10/14 13:34:27;;;;;;;7.63;1.45;;;17.80;92.80;;;;;;5071388;28;20059;-53
2023/10/14 13:36:53;;;;;;;6.47;1.30;;;17.10;94.40;;;;;;5071246;28;20108;-55